createdAt,value
2022-08-26T00:00:47.291Z,74.56
2022-08-26T00:01:49.397Z,73.97
2022-08-26T00:02:51.137Z,74.29
2022-08-26T00:03:52.889Z,75.14
2022-08-26T00:04:54.481Z,74.89
2022-08-26T00:05:56.099Z,75.04
2022-08-26T00:06:58.097Z,75.12
2022-08-26T00:08:00.014Z,75.39
2022-08-26T00:09:02.292Z,75.86
2022-08-26T00:10:05.765Z,76.54
2022-08-26T00:11:07.406Z,76.20
2022-08-26T00:12:12.350Z,76.82
2022-08-26T00:13:14.372Z,77.99
2022-08-26T00:14:16.827Z,79.01
2022-08-26T00:15:20.525Z,78.78
2022-08-26T00:16:23.804Z,78.61
2022-08-26T00:17:25.660Z,78.37
2022-08-26T00:18:28.501Z,78.79
2022-08-26T00:19:32.717Z,78.66
2022-08-26T00:20:35.519Z,79.07
2022-08-26T00:21:37.525Z,79.39
2022-08-26T00:22:40.483Z,79.38
2022-08-26T00:23:42.304Z,80.23
2022-08-26T00:24:47.922Z,80.46
2022-08-26T00:25:49.908Z,80.02
2022-08-26T00:26:51.739Z,80.39
2022-08-26T00:27:53.476Z,81.15
2022-08-26T00:28:55.072Z,81.02
2022-08-26T00:29:56.824Z,81.95
2022-08-26T00:30:59.560Z,82.25
2022-08-26T00:32:02.727Z,81.50
2022-08-26T00:33:06.415Z,81.52
2022-08-26T00:34:11.343Z,81.26
2022-08-26T00:35:14.293Z,81.05
2022-08-26T00:36:19.956Z,80.67
2022-08-26T00:37:22.161Z,80.89
2022-08-26T00:38:24.807Z,81.06
2022-08-26T00:39:26.412Z,80.85
2022-08-26T00:40:33.515Z,80.87
2022-08-26T00:41:38.225Z,80.61
2022-08-26T00:42:39.866Z,80.80
2022-08-26T00:43:48.117Z,80.67
2022-08-26T00:44:49.904Z,80.52
2022-08-26T00:46:33.464Z,80.43
2022-08-26T00:47:47.060Z,80.60
2022-08-26T00:48:53.636Z,80.44
2022-08-26T00:49:56.643Z,81.33
2022-08-26T00:51:22.542Z,81.47
2022-08-26T00:52:25.066Z,81.46
2022-08-26T00:53:30.591Z,81.01
2022-08-26T00:54:42.425Z,80.88
2022-08-26T00:55:45.013Z,81.88
2022-08-26T00:56:53.887Z,81.68
2022-08-26T00:57:56.127Z,81.58
2022-08-26T00:59:02.543Z,80.98
2022-08-26T01:00:12.146Z,80.65
2022-08-26T01:01:15.589Z,80.30
2022-08-26T01:02:20.990Z,80.28
2022-08-26T01:03:26.483Z,80.15
2022-08-26T01:04:29.191Z,80.66
2022-08-26T01:05:31.047Z,80.07
2022-08-26T01:06:32.689Z,79.84
2022-08-26T01:07:35.461Z,80.39
2022-08-26T01:08:37.079Z,79.77
2022-08-26T01:09:39.295Z,80.68
2022-08-26T01:10:42.295Z,79.84
2022-08-26T01:11:47.266Z,79.75
2022-08-26T01:13:05.713Z,78.93
2022-08-26T01:14:09.519Z,79.47
2022-08-26T01:15:20.376Z,80.63
2022-08-26T01:16:22.632Z,80.54
2022-08-26T01:17:24.281Z,80.09
2022-08-26T01:18:26.744Z,79.87
2022-08-26T01:19:48.913Z,79.36
2022-08-26T01:21:27.714Z,79.15
2022-08-26T01:22:50.390Z,79.08
2022-08-26T01:23:57.473Z,79.12
2022-08-26T01:25:03.588Z,78.52
2022-08-26T01:26:19.577Z,78.36
2022-08-26T01:27:22.037Z,78.37
2022-08-26T01:28:29.076Z,78.21
2022-08-26T01:29:33.792Z,78.35
2022-08-26T01:30:37.556Z,79.59
2022-08-26T01:31:45.134Z,80.23
2022-08-26T01:32:50.467Z,80.67
2022-08-26T01:34:15.271Z,80.64
2022-08-26T01:35:17.349Z,80.63
2022-08-26T01:36:19.908Z,80.16
2022-08-26T01:37:26.252Z,79.63
2022-08-26T01:38:27.936Z,80.00
2022-08-26T01:39:34.697Z,80.21
2022-08-26T01:40:39.008Z,79.96
2022-08-26T01:41:42.964Z,79.47
2022-08-26T01:42:46.881Z,78.75
2022-08-26T01:43:54.222Z,78.64
2022-08-26T01:45:18.809Z,79.18
2022-08-26T01:46:23.814Z,80.61
2022-08-26T01:47:30.084Z,82.71
2022-08-26T01:48:34.259Z,82.42
2022-08-26T01:49:37.819Z,82.39
2022-08-26T01:50:40.316Z,82.24
2022-08-26T01:51:44.381Z,82.32
2022-08-26T01:52:49.878Z,82.05
2022-08-26T01:53:56.353Z,81.36
2022-08-26T01:55:01.931Z,81.03
2022-08-26T01:56:05.351Z,80.61
2022-08-26T01:57:08.000Z,80.36
2022-08-26T01:58:20.515Z,80.31
2022-08-26T01:59:23.542Z,79.79
2022-08-26T02:00:26.042Z,80.18
2022-08-26T02:01:29.491Z,79.75
2022-08-26T02:02:31.994Z,79.89
2022-08-26T02:03:38.691Z,79.84
2022-08-26T02:04:51.126Z,79.88
2022-08-26T02:06:00.942Z,80.27
2022-08-26T02:07:06.393Z,81.02
2022-08-26T02:08:09.261Z,81.30
2022-08-26T02:09:11.672Z,81.37
2022-08-26T02:10:14.672Z,80.99
2022-08-26T02:11:18.277Z,80.68
2022-08-26T02:12:20.531Z,80.87
2022-08-26T02:13:25.450Z,80.50
2022-08-26T02:14:34.833Z,80.80
2022-08-26T02:15:37.963Z,79.69
2022-08-26T02:16:45.664Z,80.53
2022-08-26T02:17:47.909Z,80.76
2022-08-26T02:18:55.891Z,80.84
2022-08-26T02:19:58.207Z,81.03
2022-08-26T02:21:00.375Z,81.58
2022-08-26T02:22:06.408Z,82.01
2022-08-26T02:23:08.898Z,82.19
2022-08-26T02:24:17.789Z,82.08
2022-08-26T02:25:35.372Z,81.60
2022-08-26T02:26:37.167Z,82.13
2022-08-26T02:27:40.952Z,81.79
2022-08-26T02:28:52.389Z,81.91
2022-08-26T02:30:03.127Z,82.65
2022-08-26T02:31:05.185Z,82.99
2022-08-26T02:32:11.045Z,83.12
2022-08-26T02:33:13.711Z,82.26
2022-08-26T02:34:31.246Z,83.62
2022-08-26T02:35:34.952Z,86.11
2022-08-26T02:36:36.618Z,87.44
2022-08-26T02:37:38.650Z,88.05
2022-08-26T02:38:43.581Z,88.98
2022-08-26T02:39:48.105Z,88.72
2022-08-26T02:40:49.812Z,88.37
2022-08-26T02:41:53.085Z,88.37
2022-08-26T02:42:55.986Z,88.26
2022-08-26T02:43:58.808Z,87.46
2022-08-26T02:45:00.604Z,86.87
2022-08-26T02:46:02.624Z,86.71
2022-08-26T02:47:04.504Z,86.34
2022-08-26T02:48:18.834Z,85.31
2022-08-26T02:49:21.105Z,85.06
2022-08-26T02:50:23.428Z,84.76
2022-08-26T02:51:27.922Z,84.93
2022-08-26T02:52:29.552Z,84.77
2022-08-26T02:53:32.073Z,84.75
2022-08-26T02:54:37.468Z,85.29
2022-08-26T02:55:41.730Z,85.18
2022-08-26T02:56:44.547Z,86.10
2022-08-26T02:57:46.796Z,85.93
2022-08-26T02:58:48.765Z,85.77
2022-08-26T02:59:50.452Z,86.49
2022-08-26T03:00:53.675Z,86.77
2022-08-26T03:01:56.429Z,86.96
2022-08-26T03:02:59.189Z,86.93
2022-08-26T03:04:04.651Z,87.75
2022-08-26T03:05:07.868Z,87.80
2022-08-26T03:06:09.454Z,88.00
2022-08-26T03:07:11.038Z,88.19
2022-08-26T03:08:12.654Z,87.71
2022-08-26T03:09:18.447Z,87.72
2022-08-26T03:10:21.174Z,87.98
2022-08-26T03:11:23.766Z,87.51
2022-08-26T03:12:26.630Z,86.86
2022-08-26T03:13:28.256Z,86.23
2022-08-26T03:14:30.210Z,87.30
2022-08-26T03:15:32.457Z,87.54
2022-08-26T03:16:36.535Z,88.02
2022-08-26T03:17:38.898Z,88.81
2022-08-26T03:18:41.440Z,88.81
2022-08-26T03:19:43.248Z,89.16
2022-08-26T03:20:46.515Z,89.40
2022-08-26T03:21:48.384Z,88.96
2022-08-26T03:22:53.268Z,88.92
2022-08-26T03:23:58.638Z,89.06
2022-08-26T03:25:00.424Z,88.87
2022-08-26T03:26:02.611Z,88.45
2022-08-26T03:27:05.909Z,87.25
2022-08-26T03:28:09.626Z,86.91
2022-08-26T03:29:30.149Z,86.88
2022-08-26T03:30:44.965Z,85.49
2022-08-26T03:31:47.328Z,86.03
2022-08-26T03:32:49.420Z,85.96
2022-08-26T03:33:51.895Z,85.73
2022-08-26T03:34:54.307Z,86.37
2022-08-26T03:35:55.933Z,86.32
2022-08-26T03:36:58.614Z,85.91
2022-08-26T03:38:01.030Z,85.75
2022-08-26T03:39:05.901Z,84.97
2022-08-26T03:40:10.561Z,84.94
2022-08-26T03:41:12.329Z,84.58
2022-08-26T03:42:14.993Z,84.78
2022-08-26T03:43:18.928Z,84.47
2022-08-26T03:44:20.529Z,84.01
2022-08-26T03:45:22.301Z,82.68
2022-08-26T03:46:23.932Z,83.50
2022-08-26T03:47:28.509Z,82.97
2022-08-26T03:48:30.084Z,83.26
2022-08-26T03:49:32.292Z,82.93
2022-08-26T03:50:35.868Z,82.58
2022-08-26T03:51:38.943Z,82.96
2022-08-26T03:52:43.858Z,83.32
2022-08-26T03:53:47.685Z,83.23
2022-08-26T03:54:49.998Z,83.40
2022-08-26T03:55:51.898Z,82.94
2022-08-26T03:56:53.969Z,82.72
2022-08-26T03:57:55.875Z,83.23
2022-08-26T03:58:57.536Z,83.90
2022-08-26T03:59:59.287Z,84.24
2022-08-26T04:01:00.933Z,83.84
2022-08-26T04:02:02.679Z,83.40
2022-08-26T04:03:04.557Z,83.32
2022-08-26T04:04:06.509Z,82.98
2022-08-26T04:05:08.872Z,82.40
2022-08-26T04:06:10.712Z,81.83
2022-08-26T04:07:12.499Z,81.52
2022-08-26T04:08:14.047Z,80.94
2022-08-26T04:09:20.245Z,80.69
2022-08-26T04:10:29.309Z,80.65
2022-08-26T04:11:34.362Z,80.79
2022-08-26T04:12:38.392Z,80.79
2022-08-26T04:13:40.014Z,80.86
2022-08-26T04:14:42.552Z,81.19
2022-08-26T04:15:44.168Z,81.86
2022-08-26T04:16:46.502Z,81.87
2022-08-26T04:17:48.662Z,82.00
2022-08-26T04:18:50.447Z,82.59
2022-08-26T04:19:54.804Z,81.90
2022-08-26T04:20:56.463Z,82.75
2022-08-26T04:21:59.153Z,82.86
2022-08-26T04:23:02.576Z,84.23
2022-08-26T04:24:06.938Z,83.97
2022-08-26T04:25:10.904Z,82.89
2022-08-26T04:26:12.545Z,82.56
2022-08-26T04:27:14.347Z,82.48
2022-08-26T04:28:15.989Z,81.93
2022-08-26T04:29:24.559Z,81.48
2022-08-26T04:30:26.198Z,81.17
2022-08-26T04:31:27.909Z,81.42
2022-08-26T04:32:32.576Z,81.29
2022-08-26T04:33:34.197Z,81.06
2022-08-26T04:34:43.808Z,82.37
2022-08-26T04:35:46.591Z,82.26
2022-08-26T04:36:50.281Z,82.48
2022-08-26T04:37:51.856Z,82.73
2022-08-26T04:38:53.521Z,82.29
2022-08-26T04:39:55.472Z,82.03
2022-08-26T04:40:57.674Z,80.42
2022-08-26T04:41:59.952Z,80.00
2022-08-26T04:43:05.379Z,80.80
2022-08-26T04:44:07.801Z,80.91
2022-08-26T04:45:11.610Z,80.90
2022-08-26T04:46:17.909Z,80.82
2022-08-26T04:47:21.304Z,80.51
2022-08-26T04:48:22.993Z,80.55
2022-08-26T04:49:26.036Z,80.27
2022-08-26T04:50:29.265Z,79.55
2022-08-26T04:51:30.875Z,80.37
2022-08-26T04:52:32.588Z,81.46
2022-08-26T04:53:34.171Z,82.56
2022-08-26T04:54:36.115Z,83.68
2022-08-26T04:55:39.632Z,84.43
2022-08-26T04:56:44.332Z,84.41
2022-08-26T04:57:46.307Z,83.84
2022-08-26T04:58:49.398Z,82.58
2022-08-26T04:59:51.193Z,80.79
2022-08-26T05:00:55.220Z,80.12
2022-08-26T05:01:59.473Z,80.11
2022-08-26T05:03:01.351Z,79.82
2022-08-26T05:04:03.606Z,80.45
2022-08-26T05:05:10.134Z,80.49
2022-08-26T05:06:12.282Z,80.29
2022-08-26T05:07:13.873Z,78.95
2022-08-26T05:08:21.585Z,79.11
2022-08-26T05:09:23.552Z,77.04
2022-08-26T05:10:27.249Z,77.89
2022-08-26T05:11:29.748Z,78.03
2022-08-26T05:12:31.454Z,77.83
2022-08-26T05:13:35.357Z,77.34
2022-08-26T05:14:36.977Z,76.51
2022-08-26T05:15:39.165Z,74.91
2022-08-26T05:16:40.986Z,76.06
2022-08-26T05:17:43.137Z,76.02
2022-08-26T05:18:46.333Z,75.22
2022-08-26T05:19:48.617Z,74.97
2022-08-26T05:20:54.739Z,74.95
2022-08-26T05:21:56.630Z,74.80
2022-08-26T05:23:01.523Z,74.84
2022-08-26T05:24:04.657Z,73.58
2022-08-26T05:25:06.758Z,73.39
2022-08-26T05:26:09.091Z,75.20
2022-08-26T05:27:11.856Z,74.44
2022-08-26T05:28:16.056Z,74.36
2022-08-26T05:29:17.645Z,74.80
2022-08-26T05:30:19.902Z,75.45
2022-08-26T05:31:24.920Z,75.44
2022-08-26T05:32:27.528Z,74.16
2022-08-26T05:33:30.762Z,74.11
2022-08-26T05:34:32.805Z,74.24
2022-08-26T05:35:34.992Z,73.90
2022-08-26T05:36:37.121Z,73.07
2022-08-26T05:37:39.444Z,71.01
2022-08-26T05:38:41.919Z,71.11
2022-08-26T05:39:51.189Z,72.08
2022-08-26T05:40:53.236Z,71.57
2022-08-26T05:41:54.867Z,71.02
2022-08-26T05:42:56.454Z,70.76
2022-08-26T05:44:00.121Z,70.57
2022-08-26T05:45:01.959Z,70.06
2022-08-26T05:46:07.148Z,69.24
2022-08-26T05:47:08.819Z,67.88
2022-08-26T05:48:11.234Z,68.00
2022-08-26T05:49:15.908Z,67.49
2022-08-26T05:50:21.902Z,67.23
2022-08-26T05:51:26.190Z,67.48
2022-08-26T05:52:27.936Z,67.48
2022-08-26T05:53:29.873Z,67.26
2022-08-26T05:54:33.942Z,66.39
2022-08-26T05:55:41.621Z,66.58
2022-08-26T05:56:43.188Z,67.18
2022-08-26T05:57:45.452Z,67.11
2022-08-26T05:58:47.115Z,66.82
2022-08-26T05:59:48.753Z,67.11
2022-08-26T06:01:01.941Z,67.04
2022-08-26T06:02:05.412Z,66.59
2022-08-26T06:03:08.429Z,66.80
2022-08-26T06:04:10.982Z,66.34
2022-08-26T06:05:12.578Z,66.14
2022-08-26T06:06:20.029Z,66.74
2022-08-26T06:07:42.416Z,68.65
2022-08-26T06:08:45.214Z,70.07
2022-08-26T06:09:46.774Z,71.05
2022-08-26T06:10:55.185Z,70.81
2022-08-26T06:11:58.780Z,71.74
2022-08-26T06:13:09.141Z,71.54
2022-08-26T06:14:11.158Z,70.87
2022-08-26T06:15:12.805Z,70.82
2022-08-26T06:16:19.565Z,71.29
2022-08-26T06:17:22.005Z,70.79
2022-08-26T06:18:32.794Z,70.77
2022-08-26T06:19:34.575Z,70.51
2022-08-26T06:20:36.903Z,70.61
2022-08-26T06:21:41.215Z,68.37
2022-08-26T06:23:00.996Z,68.69
2022-08-26T06:24:26.987Z,69.33
2022-08-26T06:25:40.777Z,70.09
2022-08-26T06:26:46.933Z,69.05
2022-08-26T06:27:52.257Z,70.07
2022-08-26T06:28:54.098Z,70.06
2022-08-26T06:29:55.746Z,68.84
2022-08-26T06:30:57.367Z,69.36
2022-08-26T06:32:00.745Z,69.34
2022-08-26T06:33:02.375Z,68.72
2022-08-26T06:34:10.516Z,68.34
2022-08-26T06:35:12.921Z,69.09
2022-08-26T06:36:21.372Z,69.30
2022-08-26T06:37:22.947Z,68.74
2022-08-26T06:38:25.445Z,68.29
2022-08-26T06:39:28.185Z,68.00
2022-08-26T06:40:32.994Z,68.21
2022-08-26T06:41:35.043Z,67.00
2022-08-26T06:42:38.217Z,65.94
2022-08-26T06:43:40.782Z,66.59
2022-08-26T06:44:44.723Z,66.26
2022-08-26T06:45:47.020Z,66.79
2022-08-26T06:46:50.463Z,66.94
2022-08-26T06:47:52.908Z,66.32
2022-08-26T06:48:57.357Z,65.30
2022-08-26T06:49:59.016Z,61.22
2022-08-26T06:51:14.035Z,59.78
2022-08-26T06:52:17.236Z,58.62
2022-08-26T06:53:22.827Z,58.48
2022-08-26T06:54:24.838Z,59.55
2022-08-26T06:55:27.872Z,58.80
2022-08-26T06:56:34.763Z,56.51
2022-08-26T06:57:37.687Z,58.14
2022-08-26T06:58:42.404Z,58.48
2022-08-26T06:59:44.049Z,56.78
2022-08-26T07:00:47.453Z,57.54
2022-08-26T07:01:50.010Z,58.85
2022-08-26T07:02:51.862Z,57.85
2022-08-26T07:03:57.065Z,57.52
2022-08-26T07:04:58.761Z,56.36
2022-08-26T07:06:04.307Z,56.90
2022-08-26T07:07:06.930Z,56.89
2022-08-26T07:08:11.299Z,56.50
2022-08-26T07:09:12.931Z,57.32
2022-08-26T07:10:15.815Z,56.32
2022-08-26T07:11:19.775Z,56.77
2022-08-26T07:12:21.671Z,55.99
2022-08-26T07:13:30.745Z,55.64
2022-08-26T07:14:34.595Z,56.05
2022-08-26T07:15:40.625Z,55.22
2022-08-26T07:16:42.334Z,55.81
2022-08-26T07:17:44.016Z,57.43
2022-08-26T07:18:46.530Z,56.32
2022-08-26T07:19:48.974Z,57.56
2022-08-26T07:20:50.847Z,58.01
2022-08-26T07:21:52.441Z,56.77
2022-08-26T07:22:58.957Z,56.08
2022-08-26T07:24:01.613Z,56.06
2022-08-26T07:25:07.550Z,55.79
2022-08-26T07:26:11.824Z,54.71
2022-08-26T07:27:15.918Z,55.79
2022-08-26T07:28:18.777Z,56.16
2022-08-26T07:29:20.368Z,55.72
2022-08-26T07:30:26.430Z,56.33
2022-08-26T07:31:33.580Z,57.49
2022-08-26T07:32:38.996Z,57.85
2022-08-26T07:33:41.956Z,56.70
2022-08-26T07:34:43.966Z,57.59
2022-08-26T07:35:45.608Z,56.95
2022-08-26T07:36:47.488Z,56.64
2022-08-26T07:37:52.823Z,56.08
2022-08-26T07:38:58.558Z,55.44
2022-08-26T07:40:01.809Z,56.37
2022-08-26T07:41:04.629Z,55.64
2022-08-26T07:42:08.164Z,55.19
2022-08-26T07:43:10.383Z,55.43
2022-08-26T07:44:12.291Z,55.01
2022-08-26T07:45:14.083Z,55.30
2022-08-26T07:46:20.744Z,55.49
2022-08-26T07:47:29.109Z,54.39
2022-08-26T07:48:31.332Z,54.34
2022-08-26T07:49:36.086Z,54.65
2022-08-26T07:50:50.212Z,54.68
2022-08-26T07:51:54.519Z,53.47
2022-08-26T07:52:56.612Z,55.08
2022-08-26T07:53:58.654Z,55.23
2022-08-26T07:55:01.849Z,53.98
2022-08-26T07:56:05.009Z,55.27
2022-08-26T07:57:08.426Z,54.49
2022-08-26T07:58:11.081Z,54.53
2022-08-26T07:59:13.520Z,55.46
2022-08-26T08:00:17.168Z,55.40
2022-08-26T08:01:24.199Z,55.43
2022-08-26T08:02:26.914Z,55.67
2022-08-26T08:03:28.539Z,54.79
2022-08-26T08:04:31.900Z,55.24
2022-08-26T08:05:34.797Z,56.10
2022-08-26T08:06:37.458Z,54.35
2022-08-26T08:07:45.222Z,55.27
2022-08-26T08:08:48.037Z,54.74
2022-08-26T08:09:52.566Z,56.00
2022-08-26T08:10:54.399Z,55.25
2022-08-26T08:11:56.010Z,55.98
2022-08-26T08:12:58.653Z,55.97
2022-08-26T08:14:01.606Z,56.94
2022-08-26T08:15:04.039Z,56.61
2022-08-26T08:16:07.793Z,56.42
2022-08-26T08:17:15.118Z,56.15
2022-08-26T08:18:17.372Z,56.37
2022-08-26T08:19:19.055Z,56.68
2022-08-26T08:20:22.100Z,56.46
2022-08-26T08:21:25.468Z,54.95
2022-08-26T08:22:27.282Z,56.05
2022-08-26T08:23:30.545Z,56.75
2022-08-26T08:24:35.764Z,56.45
2022-08-26T08:25:37.353Z,55.26
2022-08-26T08:26:39.461Z,56.16
2022-08-26T08:27:45.070Z,55.58
2022-08-26T08:28:47.784Z,56.01
2022-08-26T08:29:50.115Z,54.87
2022-08-26T08:30:51.717Z,53.62
2022-08-26T08:31:56.887Z,53.99
2022-08-26T08:33:00.169Z,52.49
2022-08-26T08:34:02.056Z,52.14
2022-08-26T08:35:10.930Z,53.05
2022-08-26T08:36:18.582Z,53.00
2022-08-26T08:37:23.140Z,52.56
2022-08-26T08:38:25.798Z,52.66
2022-08-26T08:39:28.023Z,51.60
2022-08-26T08:40:29.694Z,49.73
2022-08-26T08:41:40.335Z,48.55
2022-08-26T08:43:06.456Z,49.72
2022-08-26T08:44:20.463Z,49.02
2022-08-26T08:45:42.362Z,49.19
2022-08-26T08:46:46.308Z,47.28
2022-08-26T08:47:54.630Z,47.44
2022-08-26T08:48:59.853Z,48.75
2022-08-26T08:50:13.047Z,47.88
2022-08-26T08:51:41.745Z,47.81
2022-08-26T08:53:00.592Z,45.60
2022-08-26T08:54:02.861Z,47.24
2022-08-26T08:55:11.001Z,46.65
2022-08-26T08:56:35.221Z,47.71
2022-08-26T08:58:02.125Z,47.10
2022-08-26T08:59:20.297Z,48.00
2022-08-26T09:00:30.124Z,47.12
2022-08-26T09:01:44.258Z,48.15
2022-08-26T09:03:18.278Z,48.85
2022-08-26T09:04:58.022Z,46.87
2022-08-26T09:06:01.740Z,46.42
2022-08-26T09:07:06.654Z,46.46
2022-08-26T09:08:19.872Z,46.57
2022-08-26T09:09:29.391Z,46.09
2022-08-26T09:10:31.527Z,46.27
2022-08-26T09:11:41.475Z,45.38
2022-08-26T09:12:43.609Z,46.20
2022-08-26T09:13:51.576Z,45.27
2022-08-26T09:14:59.325Z,46.13
2022-08-26T09:16:11.763Z,45.78
2022-08-26T09:17:44.345Z,45.20
2022-08-26T09:19:05.206Z,44.73
2022-08-26T09:20:20.607Z,44.08
2022-08-26T09:21:25.129Z,43.84
2022-08-26T09:22:36.504Z,43.60
2022-08-26T09:23:41.868Z,44.90
2022-08-26T09:24:48.428Z,43.55
2022-08-26T09:26:01.119Z,44.49
2022-08-26T09:27:02.992Z,44.60
2022-08-26T09:28:13.712Z,43.42
2022-08-26T09:29:18.328Z,42.90
2022-08-26T09:30:33.241Z,43.17
2022-08-26T09:31:37.320Z,43.04
2022-08-26T09:32:40.509Z,42.94
2022-08-26T09:33:42.466Z,43.03
2022-08-26T09:35:07.809Z,43.71
2022-08-26T09:36:41.252Z,42.96
2022-08-26T09:38:54.405Z,42.33
2022-08-26T09:40:22.947Z,41.75
2022-08-26T09:41:33.906Z,42.57
2022-08-26T09:42:35.799Z,40.79
2022-08-26T09:43:37.631Z,42.37
2022-08-26T09:44:56.739Z,43.54
2022-08-26T09:46:18.092Z,41.96
2022-08-26T09:47:32.968Z,43.30
2022-08-26T09:48:40.694Z,41.26
2022-08-26T09:49:44.630Z,41.09
2022-08-26T09:50:58.632Z,40.62
2022-08-26T09:52:10.766Z,41.66
2022-08-26T09:53:12.864Z,40.74
2022-08-26T09:54:30.186Z,41.71
2022-08-26T09:55:34.765Z,42.04
2022-08-26T09:56:38.734Z,42.89
2022-08-26T09:57:54.050Z,41.62
2022-08-26T09:58:57.003Z,40.72
2022-08-26T10:00:01.189Z,40.95
2022-08-26T10:01:08.504Z,41.20
2022-08-26T10:02:39.475Z,41.43
2022-08-26T10:03:41.816Z,41.89
2022-08-26T10:04:56.452Z,42.05
2022-08-26T10:06:01.765Z,42.39
2022-08-26T10:07:06.086Z,42.71
2022-08-26T10:08:31.045Z,42.07
2022-08-26T10:09:43.404Z,42.57
2022-08-26T10:10:45.798Z,42.42
2022-08-26T10:11:53.473Z,41.62
2022-08-26T10:13:07.907Z,41.16
2022-08-26T10:14:25.187Z,40.88
2022-08-26T10:15:28.088Z,41.35
2022-08-26T10:16:47.047Z,41.84
2022-08-26T10:17:51.624Z,41.01
2022-08-26T10:19:13.465Z,41.55
2022-08-26T10:20:25.888Z,39.68
2022-08-26T10:21:35.867Z,38.41
2022-08-26T10:22:51.865Z,38.36
2022-08-26T10:23:56.624Z,38.18
2022-08-26T10:25:03.911Z,37.47
2022-08-26T10:26:11.729Z,37.20
2022-08-26T10:27:34.862Z,38.09
2022-08-26T10:28:52.838Z,36.94
2022-08-26T10:30:00.392Z,36.87
2022-08-26T10:31:11.480Z,36.47
2022-08-26T10:32:35.125Z,35.81
2022-08-26T10:33:39.444Z,36.06
2022-08-26T10:34:42.367Z,36.69
2022-08-26T10:35:56.377Z,35.18
2022-08-26T10:37:13.874Z,35.74
2022-08-26T10:38:23.203Z,35.79
2022-08-26T10:39:43.830Z,36.09
2022-08-26T10:41:00.609Z,37.31
2022-08-26T10:42:13.916Z,37.20
2022-08-26T10:43:18.342Z,37.82
2022-08-26T10:44:21.642Z,35.61
2022-08-26T10:45:27.357Z,34.87
2022-08-26T10:46:44.328Z,34.63
2022-08-26T10:48:00.127Z,35.26
2022-08-26T10:49:17.363Z,34.87
2022-08-26T10:50:19.884Z,34.73
2022-08-26T10:51:32.076Z,34.90
2022-08-26T10:53:13.728Z,34.16
2022-08-26T10:54:31.209Z,34.11
2022-08-26T10:55:39.505Z,33.51
2022-08-26T10:57:14.166Z,34.58
2022-08-26T10:58:27.579Z,34.54
2022-08-26T10:59:58.733Z,33.64
2022-08-26T11:01:28.472Z,34.66
2022-08-26T11:02:40.611Z,33.65
2022-08-26T11:03:55.196Z,34.39
2022-08-26T11:05:06.892Z,35.50
2022-08-26T11:06:23.875Z,33.51
2022-08-26T11:07:46.279Z,33.05
2022-08-26T11:08:48.158Z,32.73
2022-08-26T11:09:50.074Z,32.64
2022-08-26T11:10:51.747Z,33.01
2022-08-26T11:11:53.359Z,32.64
2022-08-26T11:13:06.994Z,33.61
2022-08-26T11:14:08.744Z,34.08
2022-08-26T11:15:13.336Z,33.35
2022-08-26T11:16:35.994Z,33.46
2022-08-26T11:17:44.716Z,33.53
2022-08-26T11:18:48.730Z,32.39
2022-08-26T11:20:01.582Z,32.60
2022-08-26T11:21:44.546Z,32.42
2022-08-26T11:22:47.979Z,33.58
2022-08-26T11:23:50.340Z,33.98
2022-08-26T11:24:52.508Z,33.08
2022-08-26T11:26:09.828Z,33.03
2022-08-26T11:27:37.661Z,33.30
2022-08-26T11:28:48.788Z,33.13
2022-08-26T11:29:59.837Z,33.38
2022-08-26T11:31:02.079Z,33.02
2022-08-26T11:32:06.230Z,33.49
2022-08-26T11:33:51.349Z,33.71
2022-08-26T11:34:59.274Z,33.55
2022-08-26T11:36:12.026Z,33.56
2022-08-26T11:37:17.610Z,33.43
2022-08-26T11:38:27.438Z,34.95
2022-08-26T11:39:31.044Z,34.31
2022-08-26T11:40:42.023Z,33.15
2022-08-26T11:41:47.103Z,33.67
2022-08-26T11:42:55.709Z,34.63
2022-08-26T11:43:59.457Z,33.88
2022-08-26T11:45:17.192Z,33.44
2022-08-26T11:46:37.483Z,32.89
2022-08-26T11:47:39.157Z,32.88
2022-08-26T11:48:43.336Z,32.92
2022-08-26T11:49:45.162Z,33.44
2022-08-26T11:51:11.722Z,33.75
2022-08-26T11:52:22.128Z,33.32
2022-08-26T11:53:25.677Z,32.38
2022-08-26T11:54:35.104Z,33.05
2022-08-26T11:55:43.403Z,33.33
2022-08-26T11:56:48.778Z,32.58
2022-08-26T11:57:54.492Z,32.44
2022-08-26T11:58:58.061Z,33.19
2022-08-26T12:00:01.318Z,30.88
2022-08-26T12:01:09.625Z,32.35
2022-08-26T12:02:17.793Z,33.11
2022-08-26T12:03:23.903Z,32.57
2022-08-26T12:04:30.290Z,31.72
2022-08-26T12:05:42.175Z,31.46
2022-08-26T12:06:51.045Z,32.86
2022-08-26T12:07:54.395Z,32.36
2022-08-26T12:09:00.006Z,32.40
2022-08-26T12:10:04.666Z,32.96
2022-08-26T12:11:10.298Z,32.63
2022-08-26T12:12:13.533Z,33.49
2022-08-26T12:13:26.478Z,32.39
2022-08-26T12:14:28.693Z,32.78
2022-08-26T12:15:32.134Z,32.91
2022-08-26T12:16:37.657Z,33.49
2022-08-26T12:17:41.950Z,32.49
2022-08-26T12:18:44.819Z,31.65
2022-08-26T12:19:46.573Z,32.60
2022-08-26T12:20:48.847Z,32.43
2022-08-26T12:21:50.816Z,33.26
2022-08-26T12:22:53.139Z,31.89
2022-08-26T12:24:00.536Z,32.47
2022-08-26T12:25:06.461Z,32.38
2022-08-26T12:26:20.755Z,32.19
2022-08-26T12:27:24.045Z,31.67
2022-08-26T12:28:25.696Z,31.43
2022-08-26T12:29:31.231Z,31.16
2022-08-26T12:30:32.989Z,31.73
2022-08-26T12:31:38.513Z,31.25
2022-08-26T12:32:57.848Z,30.60
2022-08-26T12:34:02.531Z,31.11
2022-08-26T12:36:12.045Z,32.47
2022-08-26T12:37:15.430Z,33.50
2022-08-26T12:38:17.433Z,32.95
2022-08-26T12:39:29.726Z,32.27
2022-08-26T12:40:31.357Z,30.68
2022-08-26T12:41:47.885Z,31.39
2022-08-26T12:42:50.075Z,31.92
2022-08-26T12:43:51.699Z,31.92
2022-08-26T12:45:06.562Z,30.33
2022-08-26T12:46:12.617Z,32.32
2022-08-26T12:47:43.382Z,31.08
2022-08-26T12:48:49.057Z,31.92
2022-08-26T12:50:01.151Z,30.82
2022-08-26T12:51:03.698Z,30.48
2022-08-26T12:52:09.732Z,30.74
2022-08-26T12:53:11.242Z,31.83
2022-08-26T12:54:14.470Z,30.59
2022-08-26T12:55:32.992Z,31.37
2022-08-26T12:56:41.099Z,30.73
2022-08-26T12:57:42.697Z,30.90
2022-08-26T12:58:44.493Z,32.04
2022-08-26T12:59:46.204Z,32.19
2022-08-26T13:00:54.078Z,30.65
2022-08-26T13:01:55.798Z,31.69
2022-08-26T13:03:01.993Z,31.91
2022-08-26T13:04:06.320Z,31.16
2022-08-26T13:05:08.072Z,32.05
2022-08-26T13:06:31.455Z,31.47
2022-08-26T13:07:33.224Z,32.19
2022-08-26T13:08:35.684Z,31.42
2022-08-26T13:09:37.339Z,31.82
2022-08-26T13:10:43.451Z,31.64
2022-08-26T13:11:45.286Z,30.36
2022-08-26T13:12:47.693Z,31.23
2022-08-26T13:14:12.491Z,31.59
2022-08-26T13:15:22.864Z,32.15
2022-08-26T13:16:25.478Z,31.85
2022-08-26T13:17:29.344Z,31.73
2022-08-26T13:18:30.972Z,32.81
2022-08-26T13:19:32.994Z,31.61
2022-08-26T13:20:34.774Z,32.23
2022-08-26T13:21:41.720Z,31.99
2022-08-26T13:22:43.319Z,31.87
2022-08-26T13:23:46.357Z,30.83
2022-08-26T13:24:48.052Z,31.79
2022-08-26T13:25:50.466Z,31.25
2022-08-26T13:26:52.097Z,30.99
2022-08-26T13:27:54.062Z,30.15
2022-08-26T13:29:01.513Z,31.02
2022-08-26T13:30:04.552Z,30.54
2022-08-26T13:31:06.426Z,31.37
2022-08-26T13:32:09.109Z,31.12
2022-08-26T13:33:12.280Z,30.73
2022-08-26T13:34:19.463Z,29.87
2022-08-26T13:35:21.121Z,30.27
2022-08-26T13:36:22.736Z,30.61
2022-08-26T13:37:34.728Z,30.72
2022-08-26T13:38:37.349Z,30.35
2022-08-26T13:39:39.473Z,30.76
2022-08-26T13:40:44.451Z,30.31
2022-08-26T13:41:46.403Z,31.33
2022-08-26T13:42:50.002Z,30.74
2022-08-26T13:43:52.350Z,31.46
2022-08-26T13:44:57.959Z,31.91
2022-08-26T13:46:01.510Z,31.24
2022-08-26T13:47:03.121Z,31.03
2022-08-26T13:48:08.413Z,30.95
2022-08-26T13:49:10.699Z,30.98
2022-08-26T13:50:12.359Z,31.33
2022-08-26T13:51:14.009Z,30.61
2022-08-26T13:52:16.533Z,31.31
2022-08-26T13:53:18.811Z,30.76
2022-08-26T13:54:20.467Z,31.39
2022-08-26T13:55:22.320Z,31.85
2022-08-26T13:56:27.327Z,31.43
2022-08-26T13:57:30.249Z,31.82
2022-08-26T13:58:32.052Z,31.57
2022-08-26T13:59:33.756Z,32.48
2022-08-26T14:00:37.410Z,31.84
2022-08-26T14:01:40.032Z,32.21
2022-08-26T14:02:41.660Z,31.36
2022-08-26T14:03:43.791Z,31.73
2022-08-26T14:04:45.528Z,32.50
2022-08-26T14:05:47.126Z,31.27
2022-08-26T14:06:48.724Z,32.47
2022-08-26T14:07:50.287Z,32.97
2022-08-26T14:08:51.985Z,31.71
2022-08-26T14:09:53.670Z,31.79
2022-08-26T14:10:55.237Z,31.96
2022-08-26T14:11:58.933Z,32.79
2022-08-26T14:13:01.617Z,32.95